Time;durP1;ratioP1;P1;durP2;ratioP2;P2;SDS_P1;SDS_P2;PMS_P1;PMS_P2;Temp;Humidity;BMP_temperature;BMP_pressure;BME280_temperature;BME280_humidity;BME280_pressure;Samples;Min_cycle;Max_cycle;Signal;HPM_P1;HPM_P2
2024/02/05 00:01:54;;;;;;;19.75;13.77;;;;;;;6.38;100.00;99103.69;6231891;22;20085;-69
2024/02/05 00:04:21;;;;;;;22.15;14.35;;;;;;;6.19;100.00;99051.66;6258974;22;20083;-70
2024/02/05 00:06:46;;;;;;;22.40;14.48;;;;;;;6.61;100.00;99098.66;6233025;22;20101;-70
2024/02/05 00:09:11;;;;;;;20.35;13.73;;;;;;;6.57;100.00;99089.50;6233049;22;20597;-69
2024/02/05 00:11:40;;;;;;;20.35;13.85;;;;;;;6.40;100.00;99060.50;6204165;22;20016;-69
2024/02/05 00:14:05;;;;;;;19.80;14.15;;;;;;;6.64;100.00;99096.69;6233334;22;20050;-70
2024/02/05 00:16:30;;;;;;;21.80;14.57;;;;;;;6.52;100.00;99100.97;6204657;22;20118;-69
2024/02/05 00:18:56;;;;;;;19.42;14.10;;;;;;;6.20;100.00;99042.97;6233449;22;20019;-70
2024/02/05 00:21:21;;;;;;;20.83;13.68;;;;;;;6.53;100.00;99088.88;6229963;22;20177;-69
2024/02/05 00:23:47;;;;;;;18.92;14.25;;;;;;;6.54;100.00;99100.88;6207281;22;20004;-69
2024/02/05 00:26:12;;;;;;;17.60;13.38;;;;;;;6.57;100.00;99095.50;6258171;22;20095;-69
2024/02/05 00:28:38;;;;;;;18.27;13.82;;;;;;;6.50;100.00;99095.09;6258699;22;20008;-68
2024/02/05 00:31:05;;;;;;;22.23;13.60;;;;;;;6.18;100.00;99045.66;6231833;22;20788;-69
2024/02/05 00:33:30;;;;;;;20.05;13.93;;;;;;;6.47;100.00;99097.88;6230197;22;20125;-68
2024/02/05 00:35:58;;;;;;;18.42;13.73;;;;;;;6.41;100.00;99097.50;6206131;22;20556;-68
2024/02/05 00:38:24;;;;;;;19.42;13.73;;;;;;;6.47;100.00;99105.63;6203837;22;20115;-69
2024/02/05 00:40:51;;;;;;;18.48;13.48;;;;;;;6.24;100.00;99089.16;6234156;22;20085;-68
2024/02/05 00:43:19;;;;;;;20.30;13.55;;;;;;;6.32;100.00;99089.44;6231631;22;20004;-70
2024/02/05 00:45:47;;;;;;;18.40;12.88;;;;;;;6.11;100.00;99055.59;6233550;22;20004;-70
2024/02/05 00:48:14;;;;;;;18.38;12.70;;;;;;;6.23;100.00;99097.81;6259350;22;20038;-70
2024/02/05 00:50:41;;;;;;;19.75;13.45;;;;;;;6.24;100.00;99093.47;6209388;22;20008;-69
2024/02/05 00:53:07;;;;;;;19.52;13.23;;;;;;;5.82;100.00;99080.75;6228649;22;20491;-68
2024/02/05 00:55:34;;;;;;;18.15;11.68;;;;;;;6.07;100.00;99077.38;6207251;22;20011;-68
2024/02/05 00:58:00;;;;;;;16.77;10.70;;;;;;;6.43;100.00;99080.13;6230474;22;20099;-68
2024/02/05 01:00:31;;;;;;;15.75;10.95;;;;;;;6.71;100.00;99085.00;6231598;22;20808;-69
2024/02/05 01:02:56;;;;;;;15.32;10.23;;;;;;;6.90;100.00;99081.13;6234040;22;20057;-69
2024/02/05 01:05:21;;;;;;;15.35;10.48;;;;;;;7.01;100.00;99075.16;6234328;22;20835;-70
2024/02/05 01:07:49;;;;;;;14.57;10.25;;;;;;;7.02;100.00;99069.88;6233934;22;20042;-70
2024/02/05 01:10:15;;;;;;;14.02;10.48;;;;;;;6.71;100.00;99012.63;6256268;22;20336;-69
2024/02/05 01:12:40;;;;;;;16.27;10.55;;;;;;;7.09;100.00;99072.88;6233838;22;20016;-68
2024/02/05 01:15:06;;;;;;;15.57;9.98;;;;;;;7.17;100.00;99072.31;6207750;22;20011;-69
2024/02/05 01:17:31;;;;;;;16.58;11.35;;;;;;;7.15;100.00;99069.00;6228760;23;20008;-69
2024/02/05 01:20:00;;;;;;;13.77;10.05;;;;;;;7.13;100.00;99084.63;6205111;22;20055;-69
2024/02/05 01:22:26;;;;;;;15.57;10.50;;;;;;;6.82;100.00;99036.91;6233865;22;20007;-69
2024/02/05 01:24:52;;;;;;;17.42;10.38;;;;;;;7.07;100.00;99085.91;6233268;22;20088;-69
2024/02/05 01:27:20;;;;;;;14.38;10.73;;;;;;;6.89;100.00;99082.88;6258768;22;20180;-69
2024/02/05 01:29:45;;;;;;;15.13;10.85;;;;;;;6.91;100.00;99081.00;6209640;22;20057;-70
2024/02/05 01:32:11;;;;;;;15.45;10.93;;;;;;;6.85;100.00;99080.63;6207722;22;20661;-69
2024/02/05 01:34:41;;;;;;;17.10;11.23;;;;;;;6.55;100.00;99061.16;6228817;23;20022;-68
2024/02/05 01:37:06;;;;;;;16.17;10.60;;;;;;;6.32;100.00;99017.13;6204309;23;20022;-70
2024/02/05 01:39:31;;;;;;;14.75;11.20;;;;;;;6.66;100.00;99071.59;6203609;23;20090;-68
2024/02/05 01:41:58;;;;;;;14.35;10.55;;;;;;;6.63;100.00;99066.63;6207969;22;20393;-69
2024/02/05 01:44:26;;;;;;;15.43;10.80;;;;;;;6.50;100.00;99060.69;6232386;22;20039;-69
2024/02/05 01:46:51;;;;;;;16.23;11.70;;;;;;;6.17;100.00;99067.28;6209104;22;20011;-69
2024/02/05 01:49:17;;;;;;;16.90;11.18;;;;;;;6.00;100.00;99073.56;6206700;22;20019;-70
2024/02/05 01:51:48;;;;;;;16.52;11.55;;;;;;;6.26;100.00;99066.63;6259870;22;20018;-70
2024/02/05 01:54:17;;;;;;;16.33;11.05;;;;;;;6.20;100.00;99067.03;6234785;22;20004;-69
2024/02/05 01:56:45;;;;;;;15.15;10.75;;;;;;;6.20;100.00;99056.72;6233856;22;20407;-70
2024/02/05 01:59:12;;;;;;;16.55;11.43;;;;;;;6.26;100.00;99048.56;6232344;22;20085;-70
2024/02/05 02:01:38;;;;;;;16.60;11.15;;;;;;;5.99;100.00;99014.28;6206998;22;20679;-70
2024/02/05 02:04:07;;;;;;;16.25;11.85;;;;;;;6.26;100.00;99058.03;6233309;22;20057;-71
2024/02/05 02:06:37;;;;;;;17.45;11.45;;;;;;;6.37;100.00;99052.97;6208234;22;20015;-69
2024/02/05 02:09:03;;;;;;;17.23;11.55;;;;;;;6.10;100.00;98998.91;6233018;22;20080;-69
2024/02/05 02:11:28;;;;;;;16.90;11.15;;;;;;;6.19;100.00;99041.31;6234978;22;20087;-69
2024/02/05 02:13:56;;;;;;;18.88;12.30;;;;;;;6.03;100.00;99046.72;6233749;22;20003;-68
2024/02/05 02:16:25;;;;;;;16.05;11.27;;;;;;;6.21;100.00;99042.88;6234822;22;20008;-67
2024/02/05 02:18:51;;;;;;;17.80;11.02;;;;;;;6.06;100.00;99031.00;6231811;22;20010;-69
2024/02/05 02:21:22;;;;;;;17.98;11.02;;;;;;;6.06;100.00;99033.59;6231383;22;20019;-70
2024/02/05 02:23:50;;;;;;;16.30;11.90;;;;;;;5.79;100.00;99013.91;6234752;22;20417;-68
2024/02/05 02:26:16;;;;;;;16.67;11.75;;;;;;;5.87;100.00;99013.38;6205062;22;20335;-69
2024/02/05 02:28:44;;;;;;;19.15;11.52;;;;;;;5.90;100.00;99013.97;6209841;22;20718;-70
2024/02/05 02:31:12;;;;;;;17.10;11.27;;;;;;;5.77;100.00;99026.06;6230538;22;20019;-69
2024/02/05 02:33:40;;;;;;;16.88;11.07;;;;;;;5.91;100.00;99028.53;6209758;22;20162;-68
2024/02/05 02:36:06;;;;;;;15.82;11.32;;;;;;;5.85;100.00;99008.31;6259591;22;20424;-70
2024/02/05 02:38:42;;;;;;;14.95;11.18;;;;;;;5.88;100.00;99018.44;6235274;22;20106;-69
2024/02/05 02:41:13;;;;;;;17.52;12.13;;;;;;;5.87;100.00;99015.94;6206292;22;20015;-69
2024/02/05 02:43:53;;;;;;;16.13;11.38;;;;;;;5.78;100.00;99010.47;6225880;23;20039;-69
2024/02/05 02:46:23;;;;;;;16.63;11.27;;;;;;;5.67;100.00;99015.53;6204271;23;20610;-71
2024/02/05 02:48:51;;;;;;;16.00;11.65;;;;;;;5.72;100.00;99020.41;6228925;22;20084;-70
2024/02/05 02:51:19;;;;;;;15.98;11.82;;;;;;;5.59;100.00;99025.56;6261951;22;20014;-70
2024/02/05 02:53:49;;;;;;;15.13;10.80;;;;;;;5.21;100.00;98964.47;6234020;22;20084;-71
2024/02/05 02:56:15;;;;;;;16.63;11.45;;;;;;;5.49;100.00;99021.94;6207487;22;20012;-68
2024/02/05 02:58:40;;;;;;;17.00;11.45;;;;;;;5.70;98.72;99030.00;6233392;22;20783;-70
2024/02/05 03:01:08;;;;;;;16.75;11.25;;;;;;;5.68;99.30;99029.28;6203198;22;20090;-70
2024/02/05 03:03:34;;;;;;;15.20;10.85;;;;;;;5.69;98.69;99024.00;6234406;22;20008;-71
2024/02/05 03:06:02;;;;;;;16.08;10.93;;;;;;;5.60;98.45;99024.63;6232120;22;20051;-70
2024/02/05 03:08:28;;;;;;;14.88;10.38;;;;;;;5.62;99.12;99035.66;6233166;22;20027;-69
2024/02/05 03:10:54;;;;;;;15.18;9.90;;;;;;;5.30;99.44;99020.56;6230555;22;20007;-72
2024/02/05 03:13:19;;;;;;;13.90;10.32;;;;;;;5.05;100.00;98987.03;6222691;22;20003;-70
2024/02/05 03:15:45;;;;;;;15.30;11.40;;;;;;;5.37;98.90;99024.41;6228431;22;20011;-69
2024/02/05 03:18:10;;;;;;;17.92;10.65;;;;;;;5.51;98.40;99033.81;6258208;22;20085;-69
2024/02/05 03:20:39;;;;;;;16.30;10.30;;;;;;;5.45;98.45;99029.03;6234544;22;20442;-71
2024/02/05 03:23:09;;;;;;;14.27;9.90;;;;;;;5.18;98.07;98978.41;6231780;22;20098;-70
2024/02/05 03:25:35;;;;;;;18.20;10.57;;;;;;;5.38;98.54;99013.19;6233276;22;20231;-70
2024/02/05 03:28:03;;;;;;;15.38;10.30;;;;;;;5.26;98.96;99008.00;6231887;22;20659;-68
2024/02/05 03:30:33;;;;;;;14.07;9.85;;;;;;;5.26;99.48;99026.06;6234365;22;20022;-68
2024/02/05 03:33:02;;;;;;;14.38;10.50;;;;;;;5.16;99.45;99025.81;6258344;22;20011;-70
2024/02/05 03:35:28;;;;;;;15.10;10.27;;;;;;;5.22;98.74;99017.69;6234763;22;20004;-71
2024/02/05 03:37:56;;;;;;;15.13;10.55;;;;;;;5.26;98.49;99021.72;6232134;22;20076;-70
2024/02/05 03:40:22;;;;;;;14.95;10.63;;;;;;;5.23;98.67;99015.94;6232037;22;20028;-69
2024/02/05 03:42:48;;;;;;;14.43;10.00;;;;;;;4.88;99.89;99030.19;6206754;22;20012;-70
2024/02/05 03:45:14;;;;;;;13.95;9.88;;;;;;;4.96;100.00;99019.38;6206793;22;20018;-71
2024/02/05 03:47:42;;;;;;;16.48;9.82;;;;;;;5.05;99.93;99023.09;6207474;22;20011;-70
2024/02/05 03:50:10;;;;;;;15.95;10.05;;;;;;;5.03;100.00;99015.47;6259795;22;20004;-71
2024/02/05 03:52:39;;;;;;;15.18;9.90;;;;;;;4.95;100.00;99015.16;6207227;22;20039;-71
2024/02/05 03:55:06;;;;;;;14.98;9.55;;;;;;;5.08;99.36;99021.16;6232122;22;20007;-70
2024/02/05 03:57:32;;;;;;;13.73;9.32;;;;;;;4.69;99.71;98957.56;6208669;22;20122;-68
2024/02/05 04:00:01;;;;;;;14.00;9.25;;;;;;;4.72;99.12;98958.19;6232007;22;20023;-70
2024/02/05 04:02:27;;;;;;;15.25;9.45;;;;;;;4.89;99.71;99013.81;6232524;22;20852;-70
2024/02/05 04:04:53;;;;;;;15.05;9.43;;;;;;;4.79;99.81;99021.28;6207265;22;20440;-71
2024/02/05 04:07:21;;;;;;;14.50;9.02;;;;;;;4.81;100.00;99019.44;6207981;22;20718;-73
2024/02/05 04:09:46;;;;;;;12.98;9.20;;;;;;;4.98;98.40;99022.66;6231945;22;20018;-70
2024/02/05 04:12:14;;;;;;;15.52;9.48;;;;;;;4.82;98.22;99023.66;6231945;22;20035;-69
2024/02/05 04:14:39;;;;;;;13.93;8.95;;;;;;;4.57;99.76;99005.53;6234018;22;20117;-69
2024/02/05 04:17:09;;;;;;;13.85;9.18;;;;;;;4.51;99.88;99011.91;6232458;22;20729;-73
2024/02/05 04:19:35;;;;;;;13.32;8.60;;;;;;;4.68;99.97;99016.00;6209658;22;20023;-69
2024/02/05 04:22:03;;;;;;;13.13;8.85;;;;;;;4.80;98.21;99016.94;6232495;22;20015;-71
2024/02/05 04:24:28;;;;;;;16.35;8.73;;;;;;;4.79;98.21;99017.88;6232650;22;20494;-68
2024/02/05 04:26:54;;;;;;;12.88;8.52;;;;;;;4.78;97.32;99011.91;6205527;22;20012;-70
2024/02/05 04:29:25;;;;;;;13.57;8.85;;;;;;;4.85;97.42;99016.66;6206446;22;20016;-71
2024/02/05 04:31:50;;;;;;;12.15;8.80;;;;;;;4.57;97.60;99011.50;6208756;22;20046;-70
2024/02/05 04:34:16;;;;;;;13.35;8.90;;;;;;;4.48;98.63;99012.09;6233784;22;20041;-71
2024/02/05 04:36:41;;;;;;;14.27;9.05;;;;;;;4.46;99.10;99015.69;6236610;22;20007;-70
2024/02/05 04:39:10;;;;;;;11.65;8.32;;;;;;;4.23;99.90;99012.78;6231265;22;20023;-70
2024/02/05 04:41:36;;;;;;;13.13;8.10;;;;;;;4.30;100.00;98997.81;6210292;22;20016;-71
2024/02/05 04:44:06;;;;;;;11.40;8.68;;;;;;;4.50;100.00;99023.13;6209695;22;20020;-71
2024/02/05 04:46:33;;;;;;;11.70;8.45;;;;;;;4.50;100.00;99012.00;6206486;22;20118;-70
2024/02/05 04:48:58;;;;;;;12.98;7.85;;;;;;;4.42;100.00;99015.88;6263414;22;20002;-71
2024/02/05 04:51:23;;;;;;;12.60;7.90;;;;;;;4.50;99.76;99012.81;6205190;22;20007;-71
2024/02/05 04:53:53;;;;;;;13.48;8.60;;;;;;;4.57;99.74;99010.69;6210670;22;20015;-69
2024/02/05 04:56:19;;;;;;;12.18;8.18;;;;;;;4.30;99.53;98967.72;6208375;22;20022;-68
2024/02/05 04:58:47;;;;;;;13.25;8.35;;;;;;;4.45;99.46;98998.59;6236007;22;20011;-70
2024/02/05 05:01:12;;;;;;;12.23;8.27;;;;;;;4.65;97.61;98999.91;6231893;22;20007;-70
2024/02/05 05:03:38;;;;;;;12.45;8.45;;;;;;;4.57;97.00;99010.69;6235775;22;20010;-70
2024/02/05 05:06:03;;;;;;;13.25;8.48;;;;;;;4.50;97.83;98997.38;6233296;22;20621;-70
2024/02/05 05:08:29;;;;;;;12.48;7.70;;;;;;;4.51;97.66;99001.59;6235448;22;20696;-71
2024/02/05 05:10:54;;;;;;;12.00;7.90;;;;;;;4.49;98.11;98997.47;6209050;22;20123;-69
2024/02/05 05:13:22;;;;;;;13.00;8.32;;;;;;;4.46;98.73;98993.34;6204420;22;20597;-70
2024/02/05 05:15:47;;;;;;;17.40;8.23;;;;;;;4.42;98.83;98984.97;6262858;22;20074;-70
2024/02/05 05:18:15;;;;;;;12.07;7.95;;;;;;;4.51;98.58;98990.47;6235640;22;20086;-70
2024/02/05 05:20:44;;;;;;;15.35;8.68;;;;;;;4.55;98.80;98994.53;6238249;22;20026;-71
2024/02/05 05:23:09;;;;;;;13.85;7.90;;;;;;;4.60;97.85;99000.22;6233856;22;20091;-70
2024/02/05 05:25:38;;;;;;;11.90;7.93;;;;;;;4.58;97.13;99000.31;6210849;22;20494;-70
2024/02/05 05:28:06;;;;;;;12.68;8.10;;;;;;;4.17;97.73;98967.66;6233357;22;20065;-70
2024/02/05 05:30:34;;;;;;;12.93;8.38;;;;;;;4.41;98.31;99009.06;6208621;22;20008;-70
2024/02/05 05:32:59;;;;;;;14.13;7.47;;;;;;;4.44;98.01;98997.75;6234547;22;20737;-71
2024/02/05 05:35:25;;;;;;;12.52;8.32;;;;;;;3.87;98.76;98943.81;6259361;22;20039;-70
2024/02/05 05:37:50;;;;;;;15.52;8.40;;;;;;;4.27;98.75;98995.41;6236201;22;20700;-69
2024/02/05 05:40:16;;;;;;;16.42;8.07;;;;;;;4.27;98.15;98998.81;6207599;22;20126;-69
2024/02/05 05:42:41;;;;;;;13.75;8.10;;;;;;;4.16;97.45;99009.78;6209643;22;20354;-68
2024/02/05 05:45:07;;;;;;;15.23;8.45;;;;;;;3.95;97.84;98990.50;6217289;22;20008;-70
2024/02/05 05:47:33;;;;;;;11.95;8.27;;;;;;;4.01;99.36;98993.50;6260124;22;20795;-68
2024/02/05 05:49:58;;;;;;;14.65;9.35;;;;;;;4.07;99.14;98988.91;6206420;22;20747;-70
2024/02/05 05:52:23;;;;;;;14.80;9.52;;;;;;;4.12;99.00;98986.88;6233136;22;20094;-70
2024/02/05 05:54:51;;;;;;;16.35;9.90;;;;;;;3.78;99.59;98961.47;6233179;22;20532;-71
2024/02/05 05:57:17;;;;;;;17.20;10.63;;;;;;;3.85;100.00;98992.78;6231140;22;20010;-69
2024/02/05 05:59:44;;;;;;;15.02;9.27;;;;;;;3.95;100.00;98999.03;6261579;22;20008;-70
2024/02/05 06:02:10;;;;;;;14.82;8.45;;;;;;;3.85;100.00;98998.78;6199073;22;20016;-71
2024/02/05 06:04:38;;;;;;;15.77;8.45;;;;;;;3.94;100.00;99010.28;6234449;22;20074;-70
2024/02/05 06:07:06;;;;;;;16.50;10.83;;;;;;;3.87;100.00;99006.41;6233228;22;20375;-70
2024/02/05 06:09:40;;;;;;;16.33;10.90;;;;;;;4.04;100.00;99006.19;6208140;22;20122;-70
2024/02/05 06:12:05;;;;;;;20.25;11.38;;;;;;;4.15;100.00;99004.72;6202866;23;20095;-69
2024/02/05 06:14:32;;;;;;;17.90;11.20;;;;;;;3.85;100.00;98998.78;6202685;23;20393;-68
2024/02/05 06:16:57;;;;;;;18.15;10.77;;;;;;;3.83;100.00;99000.63;6205385;22;20012;-70
2024/02/05 06:19:23;;;;;;;18.10;9.10;;;;;;;4.08;100.00;98998.31;6234357;22;20018;-69
2024/02/05 06:21:48;;;;;;;16.02;9.73;;;;;;;3.93;100.00;99002.63;6230520;22;20038;-70
2024/02/05 06:24:19;;;;;;;16.38;9.50;;;;;;;3.91;100.00;98982.16;6207851;22;20058;-69
2024/02/05 06:26:49;;;;;;;13.60;8.98;;;;;;;3.77;100.00;98951.28;6206590;22;20699;-70
2024/02/05 06:29:17;;;;;;;15.05;8.68;;;;;;;4.07;100.00;98984.63;6233590;22;20004;-71
2024/02/05 06:31:42;;;;;;;17.25;9.40;;;;;;;3.95;100.00;98962.19;6207958;22;20008;-71
2024/02/05 06:34:07;;;;;;;14.07;9.25;;;;;;;4.15;100.00;98997.00;6213137;23;20087;-71
2024/02/05 06:36:33;;;;;;;15.00;9.07;;;;;;;4.22;100.00;99000.84;6254370;22;20365;-71
2024/02/05 06:39:00;;;;;;;15.15;9.32;;;;;;;4.16;100.00;98978.06;6257209;22;20024;-70
2024/02/05 06:41:27;;;;;;;15.27;9.52;;;;;;;4.17;100.00;98992.59;6208924;22;20034;-71
2024/02/05 06:43:57;;;;;;;15.90;9.63;;;;;;;4.21;100.00;99000.00;6229301;22;20003;-71
2024/02/05 06:46:23;;;;;;;14.40;10.20;;;;;;;4.17;100.00;98992.59;6232925;22;20008;-70
2024/02/05 06:48:48;;;;;;;17.63;10.32;;;;;;;4.17;100.00;98985.69;6233184;22;20608;-70
2024/02/05 06:51:14;;;;;;;15.13;9.70;;;;;;;4.15;100.00;98991.84;6230006;22;20099;-69
2024/02/05 06:53:44;;;;;;;14.35;10.45;;;;;;;4.12;100.00;99004.91;6229122;23;20813;-70
2024/02/05 06:56:10;;;;;;;16.33;10.45;;;;;;;4.14;100.00;99011.59;6201536;23;20008;-67
2024/02/05 06:58:37;;;;;;;17.20;11.50;;;;;;;4.14;100.00;99008.22;6202800;23;20764;-70
2024/02/05 07:01:06;;;;;;;18.55;12.10;;;;;;;4.13;100.00;99024.59;6207444;22;20018;-72
2024/02/05 07:03:31;;;;;;;22.42;12.95;;;;;;;4.11;100.00;99023.84;6234380;22;20015;-69
2024/02/05 07:05:56;;;;;;;20.92;14.48;;;;;;;4.18;100.00;99036.25;6233966;22;20015;-72
2024/02/05 07:08:27;;;;;;;21.83;13.70;;;;;;;3.93;100.00;99021.47;6230313;22;20074;-69
2024/02/05 07:10:53;;;;;;;21.73;13.75;;;;;;;4.15;100.00;99035.63;6207879;22;20031;-69
2024/02/05 07:13:20;;;;;;;20.73;13.52;;;;;;;4.08;100.00;99039.47;6256845;22;20038;-69
2024/02/05 07:15:46;;;;;;;22.73;12.57;;;;;;;4.11;100.00;99040.13;6205248;22;20106;-68
2024/02/05 07:18:13;;;;;;;19.77;11.15;;;;;;;3.87;100.00;98993.56;6231704;22;20080;-69
2024/02/05 07:20:41;;;;;;;18.90;11.48;;;;;;;4.14;100.00;99045.06;6230890;22;20213;-69
2024/02/05 07:23:07;;;;;;;18.25;10.82;;;;;;;4.09;100.00;99035.97;6234195;22;20015;-70
2024/02/05 07:25:38;;;;;;;21.42;10.85;;;;;;;4.15;100.00;99043.34;6226112;23;20027;-70
2024/02/05 07:28:07;;;;;;;20.25;10.48;;;;;;;4.09;100.00;99041.09;6233975;22;20014;-70
2024/02/05 07:30:36;;;;;;;16.10;10.27;;;;;;;4.04;100.00;99057.66;6207605;22;20011;-70
2024/02/05 07:33:03;;;;;;;19.02;10.45;;;;;;;3.70;100.00;98989.41;6208773;22;20054;-69
2024/02/05 07:35:29;;;;;;;18.65;10.18;;;;;;;4.05;100.00;99053.34;6233125;22;20038;-70
2024/02/05 07:37:55;;;;;;;18.95;10.70;;;;;;;3.78;100.00;99000.06;6203845;22;20090;-69
2024/02/05 07:40:20;;;;;;;19.40;10.02;;;;;;;4.09;100.00;99039.38;6208487;22;20024;-69
2024/02/05 07:42:45;;;;;;;18.42;11.50;;;;;;;4.18;100.00;99045.69;6227797;22;20340;-69
2024/02/05 07:45:11;;;;;;;18.25;10.98;;;;;;;3.82;100.00;99044.44;6206568;22;20011;-69
2024/02/05 07:47:37;;;;;;;17.00;11.55;;;;;;;3.58;100.00;98974.72;6228769;23;20014;-69
2024/02/05 07:50:03;;;;;;;18.75;11.82;;;;;;;4.08;100.00;99052.34;6207890;22;20012;-70
2024/02/05 07:52:31;;;;;;;17.55;11.23;;;;;;;4.13;100.00;99043.41;6235041;22;20031;-70
2024/02/05 07:54:56;;;;;;;17.83;11.48;;;;;;;4.24;100.00;99053.06;6206657;22;20480;-70
2024/02/05 07:57:21;;;;;;;27.38;12.93;;;;;;;4.13;100.00;99058.88;6208861;22;20015;-69
2024/02/05 07:59:47;;;;;;;24.05;13.13;;;;;;;4.07;100.00;99053.25;6228006;22;20408;-69
2024/02/05 08:02:15;;;;;;;30.05;13.20;;;;;;;4.14;100.00;99055.34;6207208;22;20011;-70
2024/02/05 08:04:40;;;;;;;19.88;12.90;;;;;;;4.11;100.00;99058.13;6203599;22;20007;-70
2024/02/05 08:07:07;;;;;;;18.30;11.45;;;;;;;4.10;100.00;99061.63;6201433;23;20096;-70
2024/02/05 08:09:32;;;;;;;17.63;10.85;;;;;;;4.20;100.00;99062.72;6227642;23;20008;-70
2024/02/05 08:12:00;;;;;;;19.65;10.65;;;;;;;4.26;100.00;99058.94;6204200;22;20487;-70
2024/02/05 08:14:26;;;;;;;18.67;10.48;;;;;;;4.33;100.00;99062.78;6232772;22;20008;-70
2024/02/05 08:16:54;;;;;;;19.73;10.80;;;;;;;4.37;100.00;99073.75;6260047;22;20011;-70
2024/02/05 08:19:21;;;;;;;21.02;11.13;;;;;;;4.28;100.00;99077.69;6230357;22;20007;-69
2024/02/05 08:21:47;;;;;;;26.00;11.40;;;;;;;3.86;100.00;99007.31;6233660;22;20012;-69
2024/02/05 08:24:13;;;;;;;19.98;10.73;;;;;;;3.84;100.00;99012.56;6257836;22;20459;-69
2024/02/05 08:26:40;;;;;;;20.33;11.55;;;;;;;4.28;100.00;99074.31;6233873;22;20092;-69
2024/02/05 08:29:06;;;;;;;18.70;10.38;;;;;;;4.28;100.00;99069.16;6206050;22;20634;-71
2024/02/05 08:31:31;;;;;;;24.08;11.30;;;;;;;3.97;100.00;99017.78;6203120;23;20012;-69
2024/02/05 08:33:59;;;;;;;19.75;11.60;;;;;;;4.31;100.00;99074.09;6230620;22;20015;-69
2024/02/05 08:36:24;;;;;;;16.50;10.60;;;;;;;4.41;100.00;99072.63;6232351;22;20436;-69
2024/02/05 08:38:54;;;;;;;17.23;10.82;;;;;;;4.37;100.00;99066.84;6208306;22;20026;-70
2024/02/05 08:41:21;;;;;;;17.20;11.10;;;;;;;4.45;100.00;99061.19;6231033;22;20007;-71
2024/02/05 08:43:46;;;;;;;17.05;11.02;;;;;;;4.42;100.00;99054.50;6232702;22;20014;-70
2024/02/05 08:46:12;;;;;;;17.02;10.35;;;;;;;3.97;100.00;98974.03;6206746;22;20019;-70
2024/02/05 08:48:39;;;;;;;17.20;11.68;;;;;;;4.59;100.00;99066.31;6230935;22;20395;-71
2024/02/05 08:51:06;;;;;;;19.65;11.30;;;;;;;4.50;100.00;99056.59;6233604;22;20432;-70
2024/02/05 08:53:33;;;;;;;20.77;12.90;;;;;;;4.48;100.00;99060.19;6228260;22;20016;-70
2024/02/05 08:55:59;;;;;;;19.50;13.10;;;;;;;4.32;100.00;99045.69;6209057;22;20019;-71
2024/02/05 08:58:24;;;;;;;23.17;13.93;;;;;;;4.35;100.00;99067.84;6232336;22;20310;-68
2024/02/05 09:00:52;;;;;;;22.33;12.80;;;;;;;4.44;100.00;99067.28;6208240;22;20015;-71
2024/02/05 09:03:19;;;;;;;19.83;12.50;;;;;;;4.41;100.00;99052.03;6205353;22;20071;-72
2024/02/05 09:05:45;;;;;;;18.38;12.43;;;;;;;4.55;100.00;99071.78;6233552;22;20405;-71
2024/02/05 09:08:10;;;;;;;19.02;12.30;;;;;;;4.52;100.00;99065.06;6231478;22;20007;-72
2024/02/05 09:10:36;;;;;;;19.65;12.35;;;;;;;4.62;100.00;99060.19;6207206;22;20106;-72
2024/02/05 09:13:02;;;;;;;19.75;12.15;;;;;;;4.35;100.00;99009.47;6206665;22;20015;-71
2024/02/05 09:15:29;;;;;;;21.20;11.23;;;;;;;4.79;100.00;99056.53;6258566;22;20486;-71
2024/02/05 09:17:55;;;;;;;17.58;11.90;;;;;;;4.89;100.00;99059.34;6233160;22;20027;-70
2024/02/05 09:20:23;;;;;;;20.67;12.30;;;;;;;4.76;100.00;99064.44;6231647;22;20368;-69
2024/02/05 09:22:48;;;;;;;44.92;12.43;;;;;;;4.91;100.00;99065.22;6234187;22;20011;-70
2024/02/05 09:25:14;;;;;;;26.27;11.63;;;;;;;4.76;100.00;99018.06;6234244;22;20011;-69
2024/02/05 09:27:42;;;;;;;18.88;11.35;;;;;;;5.19;100.00;99072.03;6208637;22;20022;-71
2024/02/05 09:30:10;;;;;;;17.20;12.02;;;;;;;5.24;100.00;99069.97;6230339;23;20042;-71
2024/02/05 09:32:35;;;;;;;20.17;10.98;;;;;;;5.19;100.00;99066.88;6224875;23;20847;-69
2024/02/05 09:35:02;;;;;;;15.73;10.38;;;;;;;5.19;100.00;99064.28;6209071;22;20038;-69
2024/02/05 09:37:30;;;;;;;18.83;9.77;;;;;;;5.24;100.00;99064.81;6259516;22;20003;-70
2024/02/05 09:39:55;;;;;;;24.13;10.10;;;;;;;5.37;100.00;99062.28;6235320;22;20024;-69
2024/02/05 09:42:23;;;;;;;18.00;10.52;;;;;;;5.23;100.00;99029.63;6232675;22;20085;-70
2024/02/05 09:44:50;;;;;;;19.30;10.32;;;;;;;5.48;100.00;99061.56;6234480;22;20043;-69
2024/02/05 09:47:18;;;;;;;19.92;10.32;;;;;;;5.53;100.00;99078.38;6230795;22;20003;-70
2024/02/05 09:49:46;;;;;;;16.33;9.48;;;;;;;5.43;100.00;99067.00;6261016;22;20060;-70
2024/02/05 09:52:12;;;;;;;16.95;10.25;;;;;;;5.36;100.00;99079.47;6233025;22;20082;-70
2024/02/05 09:54:47;;;;;;;13.73;9.23;;;;;;;5.23;100.00;99031.41;6231930;22;20506;-69
2024/02/05 09:57:12;;;;;;;20.65;9.40;;;;;;;5.22;100.00;99022.84;6205197;23;20126;-70
2024/02/05 09:59:41;;;;;;;17.40;9.70;;;;;;;5.49;100.00;99047.72;6227854;23;20055;-71
2024/02/05 10:02:07;;;;;;;15.63;9.32;;;;;;;5.67;100.00;99061.97;6205183;23;20008;-69
2024/02/05 10:04:45;;;;;;;12.68;8.55;;;;;;;5.82;100.00;99072.19;6200492;23;20018;-68
2024/02/05 10:07:17;;;;;;;12.85;7.97;;;;;;;6.11;100.00;99073.66;6229127;23;20038;-68
2024/02/05 10:09:45;;;;;;;12.95;6.90;;;;;;;6.35;100.00;99063.41;6227990;22;20044;-69
2024/02/05 10:12:13;;;;;;;13.88;6.25;;;;;;;6.54;98.96;99075.03;6232896;22;20015;-69
2024/02/05 10:14:42;;;;;;;13.18;7.18;;;;;;;6.72;98.45;99076.31;6208984;22;20084;-69
2024/02/05 10:17:11;;;;;;;13.23;7.97;;;;;;;6.90;95.86;99075.97;6232853;22;20432;-69
2024/02/05 10:19:36;;;;;;;12.77;7.45;;;;;;;7.38;94.56;99073.31;6210406;22;20004;-70
2024/02/05 10:22:05;;;;;;;11.38;6.45;;;;;;;7.60;90.09;99067.38;6233346;22;20014;-70
2024/02/05 10:24:31;;;;;;;9.27;5.82;;;;;;;8.02;85.84;99074.63;6232615;22;20047;-70
2024/02/05 10:26:58;;;;;;;11.38;5.63;;;;;;;8.42;82.68;99077.56;6232222;22;20542;-70
2024/02/05 10:29:25;;;;;;;10.07;4.80;;;;;;;8.45;83.75;99068.72;6231764;22;20467;-69
2024/02/05 10:31:58;;;;;;;8.75;4.80;;;;;;;8.55;82.84;99066.25;6234159;22;20091;-70
2024/02/05 10:34:24;;;;;;;7.38;3.80;;;;;;;8.77;82.22;99055.00;6207106;22;20015;-68
2024/02/05 10:36:50;;;;;;;8.23;3.83;;;;;;;8.77;79.74;99011.75;6209158;22;20043;-70
2024/02/05 10:39:23;;;;;;;8.65;3.78;;;;;;;9.00;77.68;99009.88;6203783;22;20026;-71
2024/02/05 10:41:52;;;;;;;8.23;3.28;;;;;;;9.40;75.60;99042.09;6260238;22;20088;-70
2024/02/05 10:44:18;;;;;;;6.32;2.95;;;;;;;10.01;71.30;99042.16;6233375;22;20012;-71
2024/02/05 10:46:45;;;;;;;9.70;3.63;;;;;;;10.18;70.45;99038.16;6205526;22;20023;-71
2024/02/05 10:49:11;;;;;;;7.90;3.38;;;;;;;10.40;69.11;99051.91;6233461;22;20027;-70
2024/02/05 10:51:39;;;;;;;6.97;3.50;;;;;;;10.06;70.37;99013.22;6206686;22;20434;-71
2024/02/05 10:54:05;;;;;;;7.45;3.50;;;;;;;9.82;70.46;98997.94;6233925;22;20121;-71
2024/02/05 10:56:33;;;;;;;8.05;3.58;;;;;;;9.79;71.24;99006.81;6208777;22;20403;-64
2024/02/05 10:59:03;;;;;;;6.60;3.30;;;;;;;9.98;69.93;99024.25;6204652;22;20132;-71
2024/02/05 11:01:32;;;;;;;12.48;4.35;;;;;;;10.14;70.50;99013.38;6232592;22;20313;-69
2024/02/05 11:04:03;;;;;;;7.65;3.63;;;;;;;10.12;69.78;98975.47;6225674;22;20046;-70
2024/02/05 11:06:33;;;;;;;7.50;3.10;;;;;;;11.02;63.15;99020.50;6233602;22;20084;-71
2024/02/05 11:09:00;;;;;;;6.70;3.05;;;;;;;11.04;64.85;99018.59;6232199;22;20074;-69
2024/02/05 11:11:31;;;;;;;7.18;3.15;;;;;;;11.03;64.38;99014.34;6205852;22;20095;-69
2024/02/05 11:14:04;;;;;;;8.98;3.20;;;;;;;11.12;65.11;99003.13;6231108;22;20583;-69
2024/02/05 11:16:32;;;;;;;8.93;5.10;;;;;;;11.16;65.18;98994.06;6233959;22;20011;-69
2024/02/05 11:18:59;;;;;;;8.32;4.32;;;;;;;11.15;65.54;98993.25;6206280;22;20004;-69
2024/02/05 11:21:28;;;;;;;7.50;3.70;;;;;;;11.33;65.47;98998.56;6233100;22;20007;-69
2024/02/05 11:23:54;;;;;;;9.48;4.30;;;;;;;11.39;64.33;98996.34;6205400;22;20003;-71